createdAt,value
2022-09-02T00:02:02.083Z,1.40
2022-09-02T00:04:39.610Z,1.50
2022-09-02T00:07:13.546Z,1.85
2022-09-02T00:09:47.706Z,1.58
2022-09-02T00:12:22.013Z,1.33
2022-09-02T00:14:56.896Z,1.60
2022-09-02T00:17:30.529Z,1.40
2022-09-02T00:20:07.525Z,1.13
2022-09-02T00:22:41.652Z,1.25
2022-09-02T00:25:15.955Z,1.55
2022-09-02T00:27:49.977Z,1.30
2022-09-02T00:30:25.252Z,1.10
2022-09-02T00:35:37.367Z,1.30
2022-09-02T00:38:12.318Z,1.20
2022-09-02T00:40:50.230Z,1.42
2022-09-02T00:43:28.759Z,1.42
2022-09-02T00:46:03.090Z,1.50
2022-09-02T00:48:38.241Z,1.23
2022-09-02T00:51:15.527Z,1.10
2022-09-02T00:53:48.923Z,1.40
2022-09-02T00:56:24.255Z,1.65
2022-09-02T00:58:58.821Z,1.40
2022-09-02T01:01:32.834Z,1.35
2022-09-02T01:04:07.059Z,1.08
2022-09-02T01:06:45.519Z,1.60
2022-09-02T01:09:19.532Z,1.30
2022-09-02T01:11:55.724Z,1.00
2022-09-02T01:14:30.180Z,1.00
2022-09-02T01:17:07.271Z,1.05
2022-09-02T01:19:43.478Z,1.20
2022-09-02T01:22:24.940Z,1.27
2022-09-02T01:25:00.235Z,0.93
2022-09-02T01:27:34.694Z,1.27
2022-09-02T01:30:10.008Z,1.25
2022-09-02T01:32:44.871Z,1.10
2022-09-02T01:35:19.331Z,1.10
2022-09-02T01:37:59.983Z,1.30
2022-09-02T01:40:35.204Z,0.93
2022-09-02T01:43:10.881Z,1.50
2022-09-02T01:45:45.372Z,0.90
2022-09-02T01:48:21.759Z,1.00
2022-09-02T01:51:00.831Z,1.00
2022-09-02T01:53:38.280Z,0.90
2022-09-02T01:56:13.702Z,1.02
2022-09-02T01:58:48.159Z,1.30
2022-09-02T02:01:23.121Z,0.95
2022-09-02T02:04:01.857Z,1.20
2022-09-02T02:06:35.622Z,0.80
2022-09-02T02:09:13.560Z,1.60
2022-09-02T02:11:48.109Z,1.13
2022-09-02T02:14:22.627Z,1.20
2022-09-02T02:16:57.565Z,1.30
2022-09-02T02:19:31.669Z,1.20
2022-09-02T02:22:06.652Z,1.85
2022-09-02T02:24:43.697Z,1.20
2022-09-02T02:27:18.022Z,1.38
2022-09-02T02:29:53.818Z,1.45
2022-09-02T02:32:29.693Z,1.20
2022-09-02T02:35:03.700Z,1.30
2022-09-02T02:37:39.750Z,0.98
2022-09-02T02:40:16.761Z,1.30
2022-09-02T02:42:53.503Z,1.10
2022-09-02T02:45:29.611Z,1.30
2022-09-02T02:48:04.852Z,1.75
2022-09-02T02:53:17.653Z,1.83
2022-09-02T02:55:54.230Z,1.67
2022-09-02T02:58:28.683Z,1.25
2022-09-02T03:01:02.660Z,1.30
2022-09-02T03:03:37.787Z,1.08
2022-09-02T03:06:12.824Z,1.23
2022-09-02T03:08:49.027Z,1.10
2022-09-02T03:11:31.025Z,1.77
2022-09-02T03:14:05.362Z,1.40
2022-09-02T03:16:41.382Z,1.40
2022-09-02T03:19:16.193Z,1.50
2022-09-02T03:21:50.571Z,1.13
2022-09-02T03:24:24.757Z,1.27
2022-09-02T03:27:01.650Z,1.42
2022-09-02T03:29:35.504Z,1.45
2022-09-02T03:32:09.673Z,1.45
2022-09-02T03:34:44.349Z,1.60
2022-09-02T03:37:19.526Z,1.10
2022-09-02T03:39:54.797Z,1.60
2022-09-02T03:42:29.204Z,1.80
2022-09-02T03:45:03.678Z,1.20
2022-09-02T03:47:40.724Z,1.20
2022-09-02T03:50:14.627Z,1.27
2022-09-02T03:52:48.624Z,1.83
2022-09-02T03:55:24.227Z,1.70
2022-09-02T03:58:05.387Z,1.45
2022-09-02T04:00:44.505Z,1.30
2022-09-02T04:03:20.469Z,1.52
2022-09-02T04:05:54.736Z,11.57
2022-09-02T04:08:32.135Z,5.20
2022-09-02T04:11:10.204Z,5.78
2022-09-02T04:16:29.045Z,3.30
2022-09-02T04:19:06.743Z,3.30
2022-09-02T04:21:42.585Z,2.55
2022-09-02T04:24:18.782Z,2.00
2022-09-02T04:27:00.601Z,2.40
2022-09-02T04:29:42.954Z,2.57
2022-09-02T04:32:17.832Z,3.53
2022-09-02T04:34:53.242Z,4.38
2022-09-02T04:37:29.107Z,2.92
2022-09-02T04:40:05.551Z,4.65
2022-09-02T04:42:42.542Z,2.07
2022-09-02T04:45:14.965Z,2.95
2022-09-02T04:47:51.830Z,2.20
2022-09-02T04:50:27.914Z,2.13
2022-09-02T04:53:07.938Z,2.10
2022-09-02T04:55:43.854Z,2.73
2022-09-02T04:58:21.835Z,2.60
2022-09-02T05:00:57.685Z,1.75
2022-09-02T05:03:36.626Z,3.28
2022-09-02T05:06:14.741Z,2.43
2022-09-02T05:08:51.293Z,2.53
2022-09-02T05:11:29.035Z,2.85
2022-09-02T05:14:05.290Z,2.30
2022-09-02T05:16:43.000Z,2.78
2022-09-02T05:19:25.402Z,3.15
2022-09-02T05:22:02.080Z,2.67
2022-09-02T05:24:43.057Z,2.30
2022-09-02T05:27:22.079Z,4.28
2022-09-02T05:30:02.153Z,3.75
2022-09-02T05:32:39.223Z,3.30
2022-09-02T05:35:17.777Z,3.60
2022-09-02T05:37:56.286Z,4.47
2022-09-02T05:40:38.341Z,4.18
2022-09-02T05:43:17.185Z,4.70
2022-09-02T05:45:55.029Z,3.97
2022-09-02T05:48:44.036Z,3.70
2022-09-02T05:51:23.759Z,3.78
2022-09-02T05:54:01.106Z,3.10
2022-09-02T05:56:36.259Z,1.80
2022-09-02T05:59:11.183Z,2.00
2022-09-02T06:01:46.626Z,1.65
2022-09-02T06:04:22.087Z,2.03
2022-09-02T06:07:00.085Z,2.20
2022-09-02T06:09:36.254Z,1.80
2022-09-02T06:12:13.384Z,1.90
2022-09-02T06:14:48.178Z,1.73
2022-09-02T06:17:25.475Z,1.95
2022-09-02T06:20:02.226Z,1.60
2022-09-02T06:22:40.113Z,1.65
2022-09-02T06:25:21.205Z,1.35
2022-09-02T06:28:04.041Z,1.33
2022-09-02T06:30:43.471Z,1.75
2022-09-02T06:33:20.344Z,1.50
2022-09-02T06:35:56.973Z,1.48
2022-09-02T06:38:36.598Z,1.38
2022-09-02T06:41:12.243Z,1.05
2022-09-02T06:43:51.597Z,1.45
2022-09-02T06:46:33.324Z,1.42
2022-09-02T06:49:35.761Z,1.17
2022-09-02T06:52:12.069Z,1.40
2022-09-02T06:54:51.482Z,1.08
2022-09-02T06:57:34.251Z,1.00
2022-09-02T07:00:16.930Z,1.08
2022-09-02T07:03:12.753Z,1.30
2022-09-02T07:05:44.787Z,0.80
2022-09-02T07:08:21.372Z,0.85
2022-09-02T07:11:01.561Z,0.90
2022-09-02T07:13:36.653Z,0.98
2022-09-02T07:16:12.736Z,0.80
2022-09-02T07:18:55.918Z,0.70
2022-09-02T07:21:32.022Z,0.90
2022-09-02T07:24:07.667Z,0.88
2022-09-02T07:26:45.741Z,1.10
2022-09-02T07:29:25.193Z,0.97
2022-09-02T07:32:00.933Z,1.30
2022-09-02T07:34:37.925Z,0.70
2022-09-02T07:37:14.816Z,1.00
2022-09-02T07:39:50.395Z,1.00
2022-09-02T07:42:28.836Z,1.05
2022-09-02T07:45:04.468Z,0.75
2022-09-02T07:47:40.614Z,0.85
2022-09-02T07:50:21.305Z,0.70
2022-09-02T07:53:03.209Z,0.80
2022-09-02T07:55:41.422Z,1.30
2022-09-02T07:58:20.421Z,0.95
2022-09-02T08:00:57.228Z,1.23
2022-09-02T08:03:32.368Z,1.20
2022-09-02T08:06:08.657Z,2.45
2022-09-02T08:08:43.569Z,0.60
2022-09-02T08:11:17.992Z,0.40
2022-09-02T08:13:55.301Z,0.60
2022-09-02T08:16:29.967Z,0.77
2022-09-02T08:19:05.083Z,0.70
2022-09-02T08:21:41.220Z,1.03
2022-09-02T08:24:16.758Z,0.30
2022-09-02T08:26:52.150Z,0.40
2022-09-02T08:29:30.670Z,0.57
2022-09-02T08:32:06.407Z,0.43
2022-09-02T08:34:41.055Z,0.30
2022-09-02T08:37:16.301Z,2.38
2022-09-02T08:39:51.720Z,0.40
2022-09-02T08:42:28.141Z,0.40
2022-09-02T08:45:14.410Z,0.40
2022-09-02T08:47:50.761Z,0.40
2022-09-02T08:50:26.018Z,0.40
2022-09-02T08:53:04.789Z,0.30
2022-09-02T08:55:42.682Z,0.30
2022-09-02T08:58:23.555Z,0.30
2022-09-02T09:01:06.224Z,0.32
2022-09-02T09:03:43.277Z,0.30
2022-09-02T09:06:19.714Z,0.60
2022-09-02T09:08:59.804Z,0.40
2022-09-02T09:11:38.780Z,0.55
2022-09-02T09:14:21.427Z,0.40
2022-09-02T09:17:01.893Z,0.65
2022-09-02T09:19:41.153Z,0.52
2022-09-02T09:22:16.565Z,0.40
2022-09-02T09:24:52.412Z,0.70
2022-09-02T09:27:27.473Z,0.40
2022-09-02T09:30:08.651Z,0.22
2022-09-02T09:32:51.133Z,0.30
2022-09-02T09:35:27.302Z,0.90
2022-09-02T09:38:02.926Z,0.50
2022-09-02T09:43:16.284Z,0.40
2022-09-02T09:45:51.671Z,0.30
2022-09-02T09:48:33.985Z,0.33
2022-09-02T09:51:16.660Z,0.30
2022-09-02T09:53:52.862Z,0.40
2022-09-02T09:56:29.916Z,0.50
2022-09-02T09:59:04.185Z,0.60
2022-09-02T10:01:39.787Z,0.35
2022-09-02T10:07:18.006Z,0.40
2022-09-02T10:09:55.871Z,0.40
2022-09-02T10:12:36.777Z,0.40
2022-09-02T10:15:12.708Z,0.40
2022-09-02T10:17:51.085Z,0.40
2022-09-02T10:20:34.011Z,0.40
2022-09-02T10:23:24.460Z,0.20
2022-09-02T10:26:04.076Z,0.30
2022-09-02T10:28:49.296Z,0.50
2022-09-02T10:31:29.254Z,0.40
2022-09-02T10:34:10.889Z,0.20
2022-09-02T10:36:47.260Z,0.30
2022-09-02T10:39:28.119Z,0.20
2022-09-02T10:42:04.127Z,0.30
2022-09-02T10:44:43.018Z,0.40
2022-09-02T10:47:20.578Z,0.40
2022-09-02T10:50:09.381Z,0.30
2022-09-02T10:53:03.633Z,0.40
2022-09-02T10:58:23.050Z,0.30
2022-09-02T11:00:58.517Z,0.30
2022-09-02T11:03:37.128Z,0.30
2022-09-02T11:06:22.573Z,0.20
2022-09-02T11:08:57.419Z,0.28
2022-09-02T11:11:38.889Z,0.30
2022-09-02T11:14:20.923Z,0.22
2022-09-02T11:16:55.733Z,0.40
2022-09-02T11:19:33.133Z,0.43
2022-09-02T11:22:12.872Z,0.40
2022-09-02T11:24:52.365Z,0.30
2022-09-02T11:27:42.911Z,0.30
2022-09-02T11:30:21.317Z,0.57
2022-09-02T11:32:59.754Z,0.30
2022-09-02T11:35:39.154Z,0.98
2022-09-02T11:38:22.239Z,0.50
2022-09-02T11:41:38.448Z,0.28
2022-09-02T11:44:29.484Z,0.20
2022-09-02T11:47:26.624Z,0.35
2022-09-02T11:50:12.065Z,0.38
2022-09-02T11:52:54.022Z,1.88
2022-09-02T11:55:33.545Z,0.30
2022-09-02T11:58:10.506Z,0.15
2022-09-02T12:01:07.231Z,0.43
2022-09-02T12:04:06.799Z,0.50
2022-09-02T12:06:41.478Z,0.30
2022-09-02T12:09:19.221Z,0.35
2022-09-02T12:11:57.349Z,0.30
2022-09-02T12:15:11.872Z,0.20
2022-09-02T12:17:45.334Z,0.30
2022-09-02T12:20:51.403Z,1.35
2022-09-02T12:23:55.993Z,0.10
2022-09-02T12:26:34.552Z,0.30
2022-09-02T12:29:14.921Z,0.30
2022-09-02T12:31:47.904Z,0.30
2022-09-02T12:34:52.716Z,0.20
2022-09-02T12:38:05.314Z,0.30
2022-09-02T12:40:37.325Z,0.20
2022-09-02T12:43:26.502Z,0.10
2022-09-02T12:46:03.906Z,0.20
2022-09-02T12:48:43.414Z,0.20
2022-09-02T12:51:33.787Z,0.25
2022-09-02T12:54:11.365Z,0.45
2022-09-02T12:56:51.551Z,0.30
2022-09-02T12:59:35.088Z,0.20
2022-09-02T13:02:35.907Z,0.50
2022-09-02T13:05:18.345Z,0.35
2022-09-02T13:08:23.041Z,0.50
2022-09-02T13:10:57.901Z,0.20
2022-09-02T13:13:42.630Z,0.30
2022-09-02T13:16:19.006Z,0.30
2022-09-02T13:19:28.324Z,0.40
2022-09-02T13:22:22.732Z,0.37
2022-09-02T13:25:29.241Z,0.40
2022-09-02T13:28:26.378Z,0.40
2022-09-02T13:31:30.545Z,0.77
2022-09-02T13:34:08.243Z,0.50
2022-09-02T13:36:50.620Z,0.40
2022-09-02T13:39:28.933Z,0.40
2022-09-02T13:42:16.910Z,0.30
2022-09-02T13:44:56.275Z,0.35
2022-09-02T13:47:34.388Z,0.30
2022-09-02T13:50:11.979Z,1.05
2022-09-02T13:55:51.439Z,0.50
2022-09-02T13:58:35.511Z,0.40
2022-09-02T14:01:26.557Z,0.40
2022-09-02T14:06:59.909Z,0.60
2022-09-02T14:09:37.548Z,0.50
2022-09-02T14:12:15.315Z,0.47
2022-09-02T14:14:52.450Z,0.50
2022-09-02T14:17:28.087Z,0.40
2022-09-02T14:20:29.462Z,0.30
2022-09-02T14:23:05.062Z,0.40
2022-09-02T14:25:42.254Z,0.45
2022-09-02T14:28:23.309Z,0.50
2022-09-02T14:31:00.016Z,0.45
2022-09-02T14:33:45.281Z,0.40
2022-09-02T14:36:35.901Z,0.40
2022-09-02T14:39:15.706Z,0.40
2022-09-02T14:41:49.369Z,0.70
2022-09-02T14:44:32.918Z,0.40
2022-09-02T14:47:08.258Z,0.30
2022-09-02T14:49:48.653Z,0.35
2022-09-02T14:52:25.558Z,0.35
2022-09-02T14:55:00.924Z,0.80
2022-09-02T14:57:39.200Z,5.10
2022-09-02T15:00:21.809Z,3.85
2022-09-02T15:03:00.506Z,1.80
2022-09-02T15:05:38.993Z,0.57
2022-09-02T15:08:15.760Z,0.40
2022-09-02T15:10:50.605Z,0.60
2022-09-02T15:13:30.700Z,7.10
2022-09-02T15:16:09.299Z,8.13
2022-09-02T15:18:44.863Z,2.25
2022-09-02T15:21:20.228Z,4.28
2022-09-02T15:26:30.858Z,1.17
2022-09-02T15:31:43.148Z,2.72
2022-09-02T15:34:17.022Z,4.00
2022-09-02T15:36:51.265Z,3.38
2022-09-02T15:39:29.527Z,1.77
2022-09-02T15:42:05.105Z,1.83
2022-09-02T15:44:39.619Z,1.33
2022-09-02T15:47:17.486Z,1.50
2022-09-02T15:49:52.211Z,0.50
2022-09-02T15:52:28.539Z,1.10
2022-09-02T15:55:03.543Z,0.95
2022-09-02T15:57:38.870Z,2.20
2022-09-02T16:00:16.101Z,1.80
2022-09-02T16:02:54.426Z,5.57
2022-09-02T16:05:30.988Z,5.40
2022-09-02T16:08:05.681Z,3.22
2022-09-02T16:10:40.601Z,12.75
2022-09-02T16:13:15.806Z,11.65
2022-09-02T16:15:53.764Z,17.33
2022-09-02T16:18:31.519Z,8.88
2022-09-02T16:21:07.920Z,2.60
2022-09-02T16:23:43.137Z,1.70
2022-09-02T16:26:22.334Z,1.00
2022-09-02T16:28:58.800Z,0.75
2022-09-02T16:31:34.323Z,0.60
2022-09-02T16:34:13.614Z,0.52
2022-09-02T16:36:50.789Z,0.60
2022-09-02T16:39:26.141Z,0.60
2022-09-02T16:42:04.608Z,0.50
2022-09-02T16:44:40.777Z,0.70
2022-09-02T16:47:17.836Z,0.80
2022-09-02T16:49:56.033Z,0.60
2022-09-02T16:52:37.980Z,0.80
2022-09-02T16:55:18.039Z,0.65
2022-09-02T16:57:51.958Z,0.70
2022-09-02T17:00:26.589Z,1.10
2022-09-02T17:03:01.927Z,1.50
2022-09-02T17:05:39.399Z,0.95
2022-09-02T17:08:16.397Z,1.33
2022-09-02T17:10:52.317Z,0.90
2022-09-02T17:13:27.150Z,1.00
2022-09-02T17:16:03.030Z,1.30
2022-09-02T17:18:39.147Z,3.00
2022-09-02T17:21:20.312Z,1.83
2022-09-02T17:23:55.685Z,1.02
2022-09-02T17:26:32.334Z,1.20
2022-09-02T17:29:21.265Z,0.88
2022-09-02T17:32:05.937Z,0.98
2022-09-02T17:34:41.533Z,1.10
2022-09-02T17:37:18.784Z,1.15
2022-09-02T17:39:53.147Z,1.02
2022-09-02T17:42:24.199Z,1.27
2022-09-02T17:44:58.143Z,1.02
2022-09-02T17:47:34.244Z,1.52
2022-09-02T17:50:10.671Z,0.80
2022-09-02T17:52:49.582Z,0.83
2022-09-02T17:55:23.991Z,1.10
2022-09-02T17:58:06.903Z,0.90
2022-09-02T18:00:46.140Z,1.00
2022-09-02T18:03:38.253Z,1.13
2022-09-02T18:06:15.033Z,1.20
2022-09-02T18:08:55.155Z,1.08
2022-09-02T18:11:34.288Z,1.42
2022-09-02T18:14:17.645Z,1.10
2022-09-02T18:16:59.629Z,1.73
2022-09-02T18:19:46.267Z,1.10
2022-09-02T18:22:36.329Z,1.40
2022-09-02T18:25:31.033Z,1.20
2022-09-02T18:28:14.222Z,1.20
2022-09-02T18:30:52.160Z,1.20
2022-09-02T18:33:43.400Z,1.63
2022-09-02T18:36:25.008Z,1.40
2022-09-02T18:39:08.023Z,1.10
2022-09-02T18:41:52.004Z,1.63
2022-09-02T18:44:36.838Z,1.20
2022-09-02T18:47:13.430Z,1.45
2022-09-02T18:49:52.901Z,1.50
2022-09-02T18:52:30.327Z,1.92
2022-09-02T18:55:10.390Z,1.20
2022-09-02T18:57:52.715Z,1.55
2022-09-02T19:00:26.495Z,1.48
2022-09-02T19:03:03.797Z,1.45
2022-09-02T19:05:40.344Z,1.30
2022-09-02T19:08:32.770Z,1.35
2022-09-02T19:11:07.532Z,1.48
2022-09-02T19:13:50.050Z,1.27
2022-09-02T19:16:23.403Z,1.35
2022-09-02T19:18:58.466Z,1.20
2022-09-02T19:21:37.173Z,1.50
2022-09-02T19:24:12.873Z,1.25
2022-09-02T19:26:47.676Z,1.30
2022-09-02T19:29:27.327Z,1.30
2022-09-02T19:32:02.574Z,1.08
2022-09-02T19:34:39.057Z,1.00
2022-09-02T19:37:14.345Z,1.23
2022-09-02T19:39:51.459Z,1.30
2022-09-02T19:42:28.306Z,1.05
2022-09-02T19:45:06.723Z,1.05
2022-09-02T19:48:05.931Z,1.02
2022-09-02T19:50:36.636Z,1.60
2022-09-02T19:53:12.839Z,1.23
2022-09-02T19:55:48.313Z,1.27
2022-09-02T19:58:26.138Z,1.60
2022-09-02T20:01:06.504Z,1.10
2022-09-02T20:03:45.179Z,1.10
2022-09-02T20:06:19.498Z,1.17
2022-09-02T20:08:58.172Z,1.05
2022-09-02T20:11:38.638Z,1.50
2022-09-02T20:14:19.095Z,1.35
2022-09-02T20:17:01.804Z,1.10
2022-09-02T20:19:36.415Z,1.37
2022-09-02T20:22:14.559Z,0.90
2022-09-02T20:24:55.891Z,0.98
2022-09-02T20:27:29.782Z,1.17
2022-09-02T20:30:11.640Z,1.00
2022-09-02T20:32:56.261Z,0.90
2022-09-02T20:36:02.826Z,1.10
2022-09-02T20:39:10.260Z,0.90
2022-09-02T20:41:49.889Z,1.02
2022-09-02T20:44:50.428Z,1.13
2022-09-02T20:47:36.991Z,1.40
2022-09-02T20:50:12.556Z,1.10
2022-09-02T20:53:03.188Z,1.33
2022-09-02T20:55:42.209Z,1.17
2022-09-02T20:58:22.665Z,1.05
2022-09-02T21:01:06.737Z,1.35
2022-09-02T21:03:46.594Z,1.20
2022-09-02T21:06:24.116Z,1.25
2022-09-02T21:09:04.595Z,0.90
2022-09-02T21:11:48.397Z,1.33
2022-09-02T21:14:27.298Z,1.00
2022-09-02T21:17:14.528Z,1.00
2022-09-02T21:19:55.958Z,1.20
2022-09-02T21:22:33.964Z,1.20
2022-09-02T21:25:13.040Z,0.98
2022-09-02T21:27:54.217Z,0.97
2022-09-02T21:30:29.380Z,1.00
2022-09-02T21:33:06.717Z,0.90
2022-09-02T21:35:45.513Z,1.10
2022-09-02T21:38:26.503Z,1.70
2022-09-02T21:41:25.809Z,1.00
2022-09-02T21:44:08.681Z,0.95
2022-09-02T21:46:58.554Z,1.10
2022-09-02T21:49:44.404Z,1.20
2022-09-02T21:52:28.155Z,0.85
2022-09-02T21:55:07.106Z,1.10
2022-09-02T21:57:40.053Z,1.00
2022-09-02T22:00:19.665Z,1.02
2022-09-02T22:02:58.390Z,1.30
2022-09-02T22:05:47.694Z,1.20
2022-09-02T22:08:31.802Z,1.17
2022-09-02T22:11:14.171Z,1.63
2022-09-02T22:13:52.666Z,1.05
2022-09-02T22:16:34.335Z,1.35
2022-09-02T22:19:13.957Z,1.10
2022-09-02T22:21:51.529Z,0.88
2022-09-02T22:24:28.677Z,0.95
2022-09-02T22:27:09.106Z,1.00
2022-09-02T22:29:45.724Z,1.30
2022-09-02T22:32:24.946Z,1.30
2022-09-02T22:35:04.917Z,1.02
2022-09-02T22:37:45.549Z,1.27
2022-09-02T22:40:22.402Z,0.88
2022-09-02T22:43:00.292Z,1.25
2022-09-02T22:45:47.971Z,1.25
2022-09-02T22:48:39.056Z,1.00
2022-09-02T22:51:27.309Z,1.00
2022-09-02T22:54:02.711Z,1.25
2022-09-02T22:56:42.840Z,0.77
2022-09-02T22:59:47.581Z,0.80
2022-09-02T23:02:21.472Z,1.10
2022-09-02T23:05:31.226Z,1.00
2022-09-02T23:08:06.241Z,1.27
2022-09-02T23:10:42.226Z,1.17
2022-09-02T23:16:00.485Z,1.10
2022-09-02T23:18:40.821Z,0.90
2022-09-02T23:21:19.850Z,0.80
2022-09-02T23:24:02.334Z,1.15
2022-09-02T23:26:41.496Z,1.05
2022-09-02T23:29:26.152Z,1.00
2022-09-02T23:32:08.927Z,1.00
2022-09-02T23:34:54.191Z,0.82
2022-09-02T23:37:35.230Z,0.80
2022-09-02T23:40:13.388Z,2.00
2022-09-02T23:42:49.206Z,1.00
2022-09-02T23:45:25.000Z,0.82
2022-09-02T23:48:10.448Z,0.97
2022-09-02T23:50:50.664Z,0.95
2022-09-02T23:53:30.159Z,0.80
2022-09-02T23:56:12.200Z,0.90
2022-09-02T23:58:57.670Z,1.30
